Time;durP1;ratioP1;P1;durP2;ratioP2;P2;SDS_P1;SDS_P2;PMS_P1;PMS_P2;Temp;Humidity;BMP_temperature;BMP_pressure;BME280_temperature;BME280_humidity;BME280_pressure;Samples;Min_cycle;Max_cycle;Signal;HPM_P1;HPM_P2
2023/01/06 00:02:20;;;;;;;42.85;6.05;;;;;;;;;;4960579;28;20417;-40
2023/01/06 00:04:46;;;;;;;35.00;5.45;;;;;;;;;;4955594;28;20043;-40
2023/01/06 00:07:13;;;;;;;40.65;7.60;;;;;;;;;;4956602;28;20125;-41
2023/01/06 00:09:39;;;;;;;28.75;4.75;;;;;;;;;;4960661;28;20070;-40
2023/01/06 00:12:06;;;;;;;50.95;6.18;;;;;;;;;;4956925;28;20514;-39
2023/01/06 00:14:32;;;;;;;63.58;7.95;;;;;;;;;;4957775;28;20098;-40
2023/01/06 00:16:59;;;;;;;78.60;9.38;;;;;;;;;;4954987;28;20043;-41
2023/01/06 00:19:25;;;;;;;33.45;5.60;;;;;;;;;;4955831;28;20047;-39
2023/01/06 00:21:52;;;;;;;22.17;5.10;;;;;;;;;;4955743;28;20066;-39
2023/01/06 00:24:18;;;;;;;32.88;6.15;;;;;;;;;;4957844;28;20414;-41
2023/01/06 00:26:45;;;;;;;41.08;5.97;;;;;;;;;;4958004;28;20062;-40
2023/01/06 00:29:12;;;;;;;50.33;7.43;;;;;;;;;;4956993;28;20142;-40
2023/01/06 00:31:38;;;;;;;27.17;5.00;;;;;;;;;;4955260;28;20050;-40
2023/01/06 00:34:08;;;;;;;44.75;6.32;;;;;;;;;;4954586;28;20047;-40
2023/01/06 00:36:35;;;;;;;46.33;6.43;;;;;;;;;;4961587;28;20077;-42
2023/01/06 00:39:01;;;;;;;33.08;5.60;;;;;;;;;;4961612;28;21255;-40
2023/01/06 00:44:13;;;;;;;44.67;6.63;;;;;;;;;;4958948;28;20811;-42
2023/01/06 00:46:39;;;;;;;38.90;6.82;;;;;;;;;;4957969;28;20439;-41
2023/01/06 00:49:06;;;;;;;63.15;10.80;;;;;;;;;;4954866;28;20071;-40
2023/01/06 00:51:34;;;;;;;33.83;6.78;;;;;;;;;;4966634;28;20054;-40
2023/01/06 00:54:01;;;;;;;53.92;8.43;;;;;;;;;;4957539;28;20063;-40
2023/01/06 00:56:27;;;;;;;43.05;6.72;;;;;;;;;;4957828;28;20045;-40
2023/01/06 00:58:54;;;;;;;40.03;7.45;;;;;;;;;;4953705;28;20047;-39
2023/01/06 01:01:20;;;;;;;46.13;7.72;;;;;;;;;;4954076;28;20058;-40
2023/01/06 01:03:47;;;;;;;33.08;5.53;;;;;;;;;;4955504;28;20195;-40
2023/01/06 01:06:15;;;;;;;35.00;6.10;;;;;;;;;;4957269;28;20043;-40
2023/01/06 01:08:42;;;;;;;55.42;8.68;;;;;;;;;;4956831;28;20087;-40
2023/01/06 01:12:08;;;;;;;37.65;7.28;;;;;;;;;;4959918;28;20089;-40
2023/01/06 01:13:56;;;;;;;48.72;7.28;;;;;;;;;;4957264;28;20047;-40
2023/01/06 01:16:23;;;;;;;50.67;7.47;;;;;;;;;;4956361;28;20047;-41
2023/01/06 01:18:49;;;;;;;22.98;4.95;;;;;;;;;;4957672;28;20040;-42
2023/01/06 01:21:16;;;;;;;69.65;9.43;;;;;;;;;;4956282;28;20059;-40
2023/01/06 01:23:42;;;;;;;36.67;6.15;;;;;;;;;;4957028;28;20114;-40
2023/01/06 01:26:09;;;;;;;48.55;7.03;;;;;;;;;;4955601;28;20047;-40
2023/01/06 01:28:35;;;;;;;33.92;6.03;;;;;;;;;;4954085;28;20556;-40
2023/01/06 01:31:02;;;;;;;29.35;5.63;;;;;;;;;;4959240;28;20054;-40
2023/01/06 01:33:29;;;;;;;48.65;7.32;;;;;;;;;;4955138;28;20383;-43
2023/01/06 01:35:55;;;;;;;33.40;6.53;;;;;;;;;;4961809;28;20073;-42
2023/01/06 01:38:24;;;;;;;50.20;8.20;;;;;;;;;;4963347;28;20047;-41
2023/01/06 01:40:50;;;;;;;26.23;6.35;;;;;;;;;;4961953;28;20050;-43
2023/01/06 01:43:17;;;;;;;48.55;7.40;;;;;;;;;;4960453;28;20405;-41
2023/01/06 01:45:46;;;;;;;30.02;5.68;;;;;;;;;;4956424;28;20102;-41
2023/01/06 01:48:28;;;;;;;31.33;5.72;;;;;;;;;;4956207;28;20078;-44
2023/01/06 01:50:56;;;;;;;46.97;7.88;;;;;;;;;;4956870;28;20097;-42
2023/01/06 01:53:28;;;;;;;37.13;6.28;;;;;;;;;;4958543;28;20043;-41
2023/01/06 01:55:57;;;;;;;43.33;7.78;;;;;;;;;;4957416;28;20111;-41
2023/01/06 01:58:32;;;;;;;30.98;5.68;;;;;;;;;;4971826;28;20055;-42
2023/01/06 02:00:59;;;;;;;46.40;7.55;;;;;;;;;;4960613;28;20452;-42
2023/01/06 02:03:26;;;;;;;43.72;7.00;;;;;;;;;;4959394;28;20047;-41
2023/01/06 02:05:56;;;;;;;27.98;5.78;;;;;;;;;;4966734;28;20058;-41
2023/01/06 02:08:35;;;;;;;56.05;7.53;;;;;;;;;;4961526;28;20043;-41
2023/01/06 02:11:02;;;;;;;48.10;7.22;;;;;;;;;;4959649;28;20107;-40
2023/01/06 02:13:29;;;;;;;34.03;5.97;;;;;;;;;;4960487;28;20043;-43
2023/01/06 02:16:04;;;;;;;50.00;8.02;;;;;;;;;;4971811;28;20039;-40
2023/01/06 02:18:36;;;;;;;48.97;8.02;;;;;;;;;;4959021;28;20048;-41
2023/01/06 02:21:08;;;;;;;36.80;6.00;;;;;;;;;;4960579;28;20129;-43
2023/01/06 02:23:58;;;;;;;43.38;7.38;;;;;;;;;;4963327;28;20037;-42
2023/01/06 02:26:37;;;;;;;64.88;8.52;;;;;;;;;;4961259;28;20046;-41
2023/01/06 02:29:30;;;;;;;47.25;7.30;;;;;;;;;;4957936;28;20051;-42
2023/01/06 02:32:09;;;;;;;48.63;8.10;;;;;;;;;;4960420;28;20418;-42
2023/01/06 02:34:56;;;;;;;31.02;5.60;;;;;;;;;;4975608;28;20202;-40
2023/01/06 02:37:23;;;;;;;47.58;6.82;;;;;;;;;;4913652;29;20422;-40
2023/01/06 02:40:12;;;;;;;28.73;5.60;;;;;;;;;;4903648;29;20433;-40
2023/01/06 02:42:42;;;;;;;28.20;5.78;;;;;;;;;;4919646;29;20087;-39
2023/01/06 02:45:26;;;;;;;37.70;7.25;;;;;;;;;;4909730;29;20126;-40
2023/01/06 02:47:56;;;;;;;26.38;5.53;;;;;;;;;;4921138;29;20052;-39
2023/01/06 02:50:29;;;;;;;48.55;7.50;;;;;;;;;;4922153;29;20134;-42
2023/01/06 02:53:05;;;;;;;34.00;5.93;;;;;;;;;;4904625;29;20051;-40
2023/01/06 02:55:37;;;;;;;42.78;6.43;;;;;;;;;;4906061;29;20051;-40
2023/01/06 02:58:08;;;;;;;39.88;6.63;;;;;;;;;;4906766;29;20092;-41
2023/01/06 03:00:37;;;;;;;35.10;5.90;;;;;;;;;;4903102;29;20076;-41
2023/01/06 03:03:06;;;;;;;34.17;6.47;;;;;;;;;;4906818;29;20111;-42
2023/01/06 03:05:34;;;;;;;49.85;7.13;;;;;;;;;;4905824;29;20151;-41
2023/01/06 03:08:03;;;;;;;51.58;7.38;;;;;;;;;;4905705;29;20104;-40
2023/01/06 03:10:30;;;;;;;48.65;7.00;;;;;;;;;;4918665;29;20058;-42
2023/01/06 03:13:09;;;;;;;32.75;5.78;;;;;;;;;;4921116;29;20617;-41
2023/01/06 03:15:37;;;;;;;33.15;5.63;;;;;;;;;;4957292;28;20514;-41
2023/01/06 03:18:03;;;;;;;56.45;7.88;;;;;;;;;;4956257;28;20098;-41
2023/01/06 03:20:30;;;;;;;41.20;6.60;;;;;;;;;;4960101;28;20043;-40
2023/01/06 03:22:56;;;;;;;30.70;5.63;;;;;;;;;;4958858;28;20141;-40
2023/01/06 03:25:24;;;;;;;43.60;7.25;;;;;;;;;;4974982;28;20047;-40
2023/01/06 03:27:51;;;;;;;40.63;6.38;;;;;;;;;;4967508;28;20510;-40
2023/01/06 03:30:21;;;;;;;54.80;7.55;;;;;;;;;;4959105;28;20043;-41
2023/01/06 03:32:53;;;;;;;36.58;6.72;;;;;;;;;;4961501;28;20050;-40
2023/01/06 03:35:29;;;;;;;32.15;6.50;;;;;;;;;;4961078;28;20057;-40
2023/01/06 03:38:05;;;;;;;46.20;7.35;;;;;;;;;;4960267;28;20525;-40
2023/01/06 03:40:38;;;;;;;44.38;7.55;;;;;;;;;;4956895;28;20513;-41
2023/01/06 03:43:22;;;;;;;29.05;6.32;;;;;;;;;;4953930;28;20057;-41
2023/01/06 03:45:52;;;;;;;23.65;6.25;;;;;;;;;;4959518;28;20058;-39
2023/01/06 03:48:43;;;;;;;55.63;8.52;;;;;;;;;;4958338;28;20039;-42
2023/01/06 03:51:16;;;;;;;40.30;6.95;;;;;;;;;;4972860;28;20581;-42
2023/01/06 03:53:47;;;;;;;44.42;7.85;;;;;;;;;;4956746;28;20413;-41
2023/01/06 03:56:17;;;;;;;40.75;6.88;;;;;;;;;;4960648;28;20078;-39
2023/01/06 03:58:45;;;;;;;28.25;5.80;;;;;;;;;;4966171;28;20043;-41
2023/01/06 04:01:12;;;;;;;34.35;6.45;;;;;;;;;;4959046;28;20583;-41
2023/01/06 04:03:42;;;;;;;37.13;6.65;;;;;;;;;;4972837;28;20578;-41
2023/01/06 04:06:09;;;;;;;23.10;5.30;;;;;;;;;;4956142;28;20075;-40
2023/01/06 04:08:37;;;;;;;59.30;8.32;;;;;;;;;;4958707;28;20046;-41
2023/01/06 04:11:03;;;;;;;37.47;6.55;;;;;;;;;;4957945;28;20042;-40
2023/01/06 04:13:31;;;;;;;51.28;7.85;;;;;;;;;;4957176;28;20046;-41
2023/01/06 04:15:57;;;;;;;55.00;8.18;;;;;;;;;;4953025;28;20075;-41
2023/01/06 04:18:24;;;;;;;54.65;8.52;;;;;;;;;;4962959;28;20537;-40
2023/01/06 04:20:51;;;;;;;23.25;5.63;;;;;;;;;;4958285;28;20053;-40
2023/01/06 04:23:31;;;;;;;46.83;7.28;;;;;;;;;;4972499;28;20505;-41
2023/01/06 04:25:59;;;;;;;31.15;5.93;;;;;;;;;;4967326;28;20485;-41
2023/01/06 04:28:34;;;;;;;66.60;9.40;;;;;;;;;;4965414;28;20043;-43
2023/01/06 04:31:01;;;;;;;23.88;6.03;;;;;;;;;;4967904;28;20513;-41
2023/01/06 04:33:30;;;;;;;26.88;6.28;;;;;;;;;;4962596;28;20039;-42
2023/01/06 04:35:59;;;;;;;40.40;7.45;;;;;;;;;;4958755;28;20050;-40
2023/01/06 04:38:26;;;;;;;50.42;7.88;;;;;;;;;;4959800;28;20512;-41
2023/01/06 04:40:53;;;;;;;29.13;6.05;;;;;;;;;;4956763;28;20034;-40
2023/01/06 04:43:20;;;;;;;46.58;7.40;;;;;;;;;;4953937;28;20075;-42
2023/01/06 04:45:46;;;;;;;25.85;6.10;;;;;;;;;;4956777;28;20050;-41
2023/01/06 04:48:13;;;;;;;32.97;6.07;;;;;;;;;;4957272;28;20047;-40
2023/01/06 04:50:39;;;;;;;49.03;7.45;;;;;;;;;;4957350;28;20512;-41
2023/01/06 04:53:06;;;;;;;49.47;7.60;;;;;;;;;;4955048;28;20122;-42
2023/01/06 04:55:36;;;;;;;33.33;6.45;;;;;;;;;;4955073;28;20051;-41
2023/01/06 04:58:02;;;;;;;53.05;7.95;;;;;;;;;;4954759;28;20047;-41
2023/01/06 05:00:29;;;;;;;49.60;8.10;;;;;;;;;;4957461;28;20557;-41
2023/01/06 05:02:55;;;;;;;30.65;7.07;;;;;;;;;;4957211;28;20085;-41
2023/01/06 05:05:22;;;;;;;52.53;8.50;;;;;;;;;;4955413;28;20039;-40
2023/01/06 05:07:52;;;;;;;27.15;6.53;;;;;;;;;;4954726;28;20054;-41
2023/01/06 05:10:18;;;;;;;34.38;6.60;;;;;;;;;;4955198;28;20062;-41
2023/01/06 05:12:45;;;;;;;36.05;6.80;;;;;;;;;;4954599;28;20063;-43
2023/01/06 05:15:11;;;;;;;30.98;6.28;;;;;;;;;;4956435;28;20043;-42
2023/01/06 05:17:38;;;;;;;32.85;6.70;;;;;;;;;;4956456;28;20074;-41
2023/01/06 05:20:04;;;;;;;60.30;9.15;;;;;;;;;;4954076;28;20658;-41
2023/01/06 05:22:31;;;;;;;38.95;6.78;;;;;;;;;;4953512;28;20039;-41
2023/01/06 05:24:57;;;;;;;29.58;6.03;;;;;;;;;;4954722;28;20386;-41
2023/01/06 05:27:24;;;;;;;48.58;7.65;;;;;;;;;;4956991;28;20045;-41
2023/01/06 05:29:50;;;;;;;29.60;5.53;;;;;;;;;;4960526;28;20530;-40
2023/01/06 05:32:17;;;;;;;64.18;8.35;;;;;;;;;;4958332;28;20047;-40
2023/01/06 05:34:43;;;;;;;38.88;6.32;;;;;;;;;;4954134;28;20047;-42
2023/01/06 05:37:10;;;;;;;35.72;6.60;;;;;;;;;;4951589;28;20044;-40
2023/01/06 05:39:36;;;;;;;39.80;6.68;;;;;;;;;;4956859;28;20044;-40
2023/01/06 05:42:02;;;;;;;50.70;7.78;;;;;;;;;;4958322;28;20051;-41
2023/01/06 05:44:29;;;;;;;42.45;6.78;;;;;;;;;;4955674;28;20070;-44
2023/01/06 05:46:55;;;;;;;34.90;6.03;;;;;;;;;;4956330;28;20047;-40
2023/01/06 05:49:22;;;;;;;42.72;7.20;;;;;;;;;;4952832;28;20433;-43
2023/01/06 05:51:48;;;;;;;45.38;7.10;;;;;;;;;;4954080;28;20039;-43
2023/01/06 05:54:15;;;;;;;34.42;6.63;;;;;;;;;;4955661;28;20051;-39
2023/01/06 05:56:41;;;;;;;38.70;6.50;;;;;;;;;;4958600;28;20213;-40
2023/01/06 05:59:08;;;;;;;63.38;8.93;;;;;;;;;;4954227;28;20043;-40
2023/01/06 06:01:34;;;;;;;31.52;5.90;;;;;;;;;;4954207;28;20056;-41
2023/01/06 06:04:01;;;;;;;27.30;6.03;;;;;;;;;;4953910;28;20051;-41
2023/01/06 06:06:28;;;;;;;53.83;7.85;;;;;;;;;;4956398;28;20043;-41
2023/01/06 06:08:54;;;;;;;25.55;5.45;;;;;;;;;;4956804;28;20133;-42
2023/01/06 06:11:21;;;;;;;43.05;6.88;;;;;;;;;;4956006;28;20043;-42
2023/01/06 06:13:49;;;;;;;37.30;6.05;;;;;;;;;;4953710;28;20046;-40
2023/01/06 06:16:17;;;;;;;36.63;6.65;;;;;;;;;;4951907;28;20098;-41
2023/01/06 06:18:46;;;;;;;19.85;5.25;;;;;;;;;;4955014;28;20079;-41
2023/01/06 06:21:14;;;;;;;47.60;7.20;;;;;;;;;;4956783;28;20046;-40
2023/01/06 06:23:41;;;;;;;31.13;6.45;;;;;;;;;;4955049;28;20508;-41
2023/01/06 06:26:08;;;;;;;34.28;6.38;;;;;;;;;;4953906;28;20507;-40
2023/01/06 06:28:35;;;;;;;44.65;7.30;;;;;;;;;;4954925;28;20150;-40
2023/01/06 06:31:03;;;;;;;31.02;6.13;;;;;;;;;;4956977;28;20445;-40
2023/01/06 06:33:30;;;;;;;34.17;6.30;;;;;;;;;;4954530;28;20391;-40
2023/01/06 06:35:56;;;;;;;33.05;6.28;;;;;;;;;;4956273;28;20040;-41
2023/01/06 06:38:23;;;;;;;55.17;6.97;;;;;;;;;;4955728;28;20203;-40
2023/01/06 06:40:50;;;;;;;35.35;5.78;;;;;;;;;;4955723;28;20043;-40
2023/01/06 06:43:16;;;;;;;41.38;6.85;;;;;;;;;;4953678;28;20406;-40
2023/01/06 06:45:43;;;;;;;24.75;5.40;;;;;;;;;;4957882;28;20500;-41
2023/01/06 06:48:10;;;;;;;36.45;6.55;;;;;;;;;;4959224;28;20430;-41
2023/01/06 06:50:36;;;;;;;48.10;8.02;;;;;;;;;;4959373;28;20105;-41
2023/01/06 06:53:02;;;;;;;45.22;7.30;;;;;;;;;;4956236;28;20059;-40
2023/01/06 06:55:29;;;;;;;32.95;5.78;;;;;;;;;;4956690;28;20043;-40
2023/01/06 06:57:55;;;;;;;43.15;7.47;;;;;;;;;;4957095;28;20520;-42
2023/01/06 07:00:22;;;;;;;38.55;5.97;;;;;;;;;;4974473;28;20043;-40
2023/01/06 07:02:49;;;;;;;32.35;5.72;;;;;;;;;;4957678;28;20059;-40
2023/01/06 07:05:16;;;;;;;53.58;7.82;;;;;;;;;;4956947;28;20062;-40
2023/01/06 07:07:42;;;;;;;34.40;6.65;;;;;;;;;;4958358;28;20060;-42
2023/01/06 07:10:12;;;;;;;25.10;6.70;;;;;;;;;;4955907;28;20043;-40
2023/01/06 07:12:39;;;;;;;63.55;9.15;;;;;;;;;;4957849;28;20055;-40
2023/01/06 07:15:06;;;;;;;46.38;7.60;;;;;;;;;;4959157;28;20054;-40
2023/01/06 07:17:33;;;;;;;38.67;6.78;;;;;;;;;;4959647;28;20045;-42
2023/01/06 07:19:59;;;;;;;41.85;7.47;;;;;;;;;;4956446;28;20046;-43
2023/01/06 07:22:25;;;;;;;50.28;6.97;;;;;;;;;;4955747;28;20071;-41
2023/01/06 07:24:52;;;;;;;38.88;6.38;;;;;;;;;;4961495;28;20493;-41
2023/01/06 07:27:18;;;;;;;45.90;7.95;;;;;;;;;;4960618;28;20399;-40
2023/01/06 07:29:45;;;;;;;42.05;7.55;;;;;;;;;;4960003;28;20090;-44
2023/01/06 07:32:11;;;;;;;53.85;8.27;;;;;;;;;;4956272;28;20476;-40
2023/01/06 07:34:38;;;;;;;41.47;7.38;;;;;;;;;;4956129;28;20047;-40
2023/01/06 07:37:04;;;;;;;32.88;6.30;;;;;;;;;;4954616;28;20050;-43
2023/01/06 07:39:31;;;;;;;34.53;6.22;;;;;;;;;;4958745;28;20043;-41
2023/01/06 07:41:57;;;;;;;43.38;6.88;;;;;;;;;;4957436;28;20054;-40
2023/01/06 07:44:24;;;;;;;51.80;8.02;;;;;;;;;;4957159;28;20047;-40
2023/01/06 07:46:50;;;;;;;27.48;5.63;;;;;;;;;;4956838;28;20073;-40
2023/01/06 07:49:17;;;;;;;30.90;5.97;;;;;;;;;;4954393;28;20058;-40
2023/01/06 07:51:43;;;;;;;31.95;6.22;;;;;;;;;;4972384;28;20533;-42
2023/01/06 07:54:10;;;;;;;38.97;8.05;;;;;;;;;;4958443;28;20502;-40
2023/01/06 07:56:36;;;;;;;48.30;10.45;;;;;;;;;;4961912;28;20105;-40
2023/01/06 07:59:03;;;;;;;62.65;17.48;;;;;;;;;;4955161;28;20051;-40
2023/01/06 08:01:29;;;;;;;42.95;10.77;;;;;;;;;;4955461;28;20048;-41
2023/01/06 08:03:56;;;;;;;47.53;9.98;;;;;;;;;;4954619;28;20054;-40
2023/01/06 08:06:22;;;;;;;56.83;12.23;;;;;;;;;;4958070;28;20536;-40
2023/01/06 08:08:49;;;;;;;63.33;13.07;;;;;;;;;;4957849;28;20042;-41
2023/01/06 08:11:16;;;;;;;49.85;11.27;;;;;;;;;;4956605;28;20391;-41
2023/01/06 08:13:42;;;;;;;55.70;11.90;;;;;;;;;;4956957;28;20043;-40
2023/01/06 08:16:09;;;;;;;28.55;9.90;;;;;;;;;;4954889;28;20039;-41
2023/01/06 08:18:36;;;;;;;43.45;11.30;;;;;;;;;;4955040;28;20039;-40
2023/01/06 08:21:04;;;;;;;47.55;8.45;;;;;;;;;;4956646;28;20098;-45
2023/01/06 08:23:31;;;;;;;40.80;8.45;;;;;;;;;;4961476;28;20045;-41
2023/01/06 08:26:05;;;;;;;37.90;8.48;;;;;;;;;;4959552;28;20122;-40
2023/01/06 08:28:32;;;;;;;49.72;9.98;;;;;;;;;;4955887;28;20051;-42
2023/01/06 08:30:59;;;;;;;36.38;8.75;;;;;;;;;;4956009;28;20047;-40
2023/01/06 08:33:26;;;;;;;47.25;12.70;;;;;;;;;;4957269;28;20054;-41
2023/01/06 08:35:59;;;;;;;58.55;12.50;;;;;;;;;;4957890;28;20159;-40
2023/01/06 08:38:26;;;;;;;60.58;11.50;;;;;;;;;;4957420;28;20054;-40
2023/01/06 08:40:54;;;;;;;51.72;11.18;;;;;;;;;;4956418;28;20054;-40
2023/01/06 08:43:21;;;;;;;32.30;8.70;;;;;;;;;;4956235;28;20043;-40
2023/01/06 08:45:47;;;;;;;38.80;8.65;;;;;;;;;;4956165;28;20039;-40
2023/01/06 08:48:15;;;;;;;52.90;9.52;;;;;;;;;;4956309;28;20053;-40
2023/01/06 08:50:42;;;;;;;26.73;7.25;;;;;;;;;;4956518;28;20039;-40
2023/01/06 08:53:09;;;;;;;41.70;8.63;;;;;;;;;;4954626;28;20039;-42
2023/01/06 08:55:39;;;;;;;45.92;9.13;;;;;;;;;;4957456;28;20046;-41
2023/01/06 08:58:05;;;;;;;38.08;8.57;;;;;;;;;;4953333;28;20047;-40
2023/01/06 09:00:32;;;;;;;47.67;9.95;;;;;;;;;;4955737;28;20070;-42
2023/01/06 09:02:58;;;;;;;62.80;11.70;;;;;;;;;;4956357;28;20509;-41
2023/01/06 09:05:25;;;;;;;48.35;9.65;;;;;;;;;;4956705;28;20046;-42
2023/01/06 09:07:51;;;;;;;41.35;10.27;;;;;;;;;;4954808;28;20077;-41
2023/01/06 09:10:18;;;;;;;52.17;12.52;;;;;;;;;;4952701;28;20051;-40
2023/01/06 09:12:45;;;;;;;36.33;7.88;;;;;;;;;;4955265;28;20079;-43
2023/01/06 09:15:11;;;;;;;36.13;8.10;;;;;;;;;;4957347;28;20043;-44
2023/01/06 09:17:38;;;;;;;72.50;9.63;;;;;;;;;;4956168;28;20114;-44
2023/01/06 09:20:04;;;;;;;39.58;8.82;;;;;;;;;;4954296;28;20047;-42
2023/01/06 09:22:31;;;;;;;63.58;10.85;;;;;;;;;;4957459;28;20053;-42
2023/01/06 09:24:57;;;;;;;55.60;11.18;;;;;;;;;;4962105;28;20081;-45
2023/01/06 09:27:24;;;;;;;88.18;14.02;;;;;;;;;;4956988;28;20047;-45
2023/01/06 09:29:50;;;;;;;64.18;12.25;;;;;;;;;;4955584;28;20039;-46
2023/01/06 09:32:17;;;;;;;101.03;14.32;;;;;;;;;;4953441;28;20058;-45
2023/01/06 09:34:43;;;;;;;69.07;11.18;;;;;;;;;;4956327;28;20054;-50
2023/01/06 09:37:10;;;;;;;67.25;10.05;;;;;;;;;;4953145;28;20094;-39
2023/01/06 09:39:36;;;;;;;50.92;8.93;;;;;;;;;;4955395;28;20053;-46
2023/01/06 09:42:22;;;;;;;58.40;8.25;;;;;;;;;;4959530;28;20040;-46
2023/01/06 09:44:54;;;;;;;63.63;9.02;;;;;;;;;;4957664;28;20054;-45
2023/01/06 09:47:24;;;;;;;85.33;10.13;;;;;;;;;;4970154;28;20043;-49
2023/01/06 09:49:56;;;;;;;56.60;8.38;;;;;;;;;;4954381;28;20047;-44
2023/01/06 09:52:25;;;;;;;84.85;10.77;;;;;;;;;;4955230;28;20049;-44
2023/01/06 09:55:01;;;;;;;59.00;9.80;;;;;;;;;;4954779;28;20042;-45
2023/01/06 09:57:59;;;;;;;59.58;10.27;;;;;;;;;;4956744;28;20035;-48
2023/01/06 10:00:26;;;;;;;68.43;8.77;;;;;;;;;;4927759;29;20052;-44
2023/01/06 10:02:52;;;;;;;69.13;10.50;;;;;;;;;;4920803;29;20114;-43
2023/01/06 10:05:29;;;;;;;81.90;9.73;;;;;;;;;;4924297;29;20055;-47
2023/01/06 10:08:00;;;;;;;47.83;8.48;;;;;;;;;;4924160;29;20057;-49
2023/01/06 10:10:37;;;;;;;101.18;11.82;;;;;;;;;;4923233;29;20140;-47
2023/01/06 10:13:18;;;;;;;87.50;11.27;;;;;;;;;;4921885;29;20040;-43
2023/01/06 10:15:52;;;;;;;60.95;9.38;;;;;;;;;;4927656;29;20043;-42
2023/01/06 10:18:24;;;;;;;44.95;8.13;;;;;;;;;;4923559;29;20040;-42
2023/01/06 10:20:53;;;;;;;72.50;9.83;;;;;;;;;;4929058;29;20080;-46
2023/01/06 10:23:35;;;;;;;64.18;9.00;;;;;;;;;;4928048;29;20062;-45
2023/01/06 10:26:25;;;;;;;72.30;10.80;;;;;;;;;;4925102;29;20048;-45
2023/01/06 10:28:53;;;;;;;48.88;9.43;;;;;;;;;;4927331;29;20541;-44
2023/01/06 10:31:22;;;;;;;63.85;11.43;;;;;;;;;;4930271;29;20046;-43
2023/01/06 10:33:52;;;;;;;44.85;9.65;;;;;;;;;;4928414;29;20043;-43
2023/01/06 10:36:25;;;;;;;55.10;9.43;;;;;;;;;;4943300;28;20070;-43
2023/01/06 10:38:55;;;;;;;44.75;10.18;;;;;;;;;;4965835;28;20066;-44
2023/01/06 10:41:45;;;;;;;110.50;12.88;;;;;;;;;;4962059;28;20051;-43
2023/01/06 10:44:12;;;;;;;85.72;11.35;;;;;;;;;;4961029;28;20053;-44
2023/01/06 10:46:40;;;;;;;63.17;9.60;;;;;;;;;;4956720;28;20046;-43
2023/01/06 10:49:11;;;;;;;50.90;9.32;;;;;;;;;;4956597;28;20113;-44
2023/01/06 10:51:39;;;;;;;75.85;12.93;;;;;;;;;;4959639;28;20375;-43
2023/01/06 10:54:10;;;;;;;53.10;9.93;;;;;;;;;;4960568;28;20046;-45
2023/01/06 10:56:38;;;;;;;106.28;13.63;;;;;;;;;;4962647;28;20054;-44
2023/01/06 10:59:06;;;;;;;85.70;12.10;;;;;;;;;;4957523;28;20038;-44
2023/01/06 11:01:33;;;;;;;63.00;10.50;;;;;;;;;;4959637;28;20066;-47
2023/01/06 11:04:06;;;;;;;58.95;10.10;;;;;;;;;;4956776;28;20043;-43
2023/01/06 11:06:33;;;;;;;60.17;11.10;;;;;;;;;;4959089;28;20043;-43
2023/01/06 11:09:06;;;;;;;36.80;9.43;;;;;;;;;;4960126;28;20576;-42
2023/01/06 11:11:33;;;;;;;117.72;14.18;;;;;;;;;;4959655;28;20039;-46
2023/01/06 11:14:01;;;;;;;42.35;9.50;;;;;;;;;;4957957;28;20043;-43
2023/01/06 11:16:29;;;;;;;78.10;11.98;;;;;;;;;;4955822;28;20043;-44
2023/01/06 11:18:57;;;;;;;59.53;10.95;;;;;;;;;;4961879;28;20073;-44
2023/01/06 11:21:35;;;;;;;62.05;12.02;;;;;;;;;;4961646;28;20035;-43
2023/01/06 11:24:08;;;;;;;94.72;14.00;;;;;;;;;;4965142;28;20621;-42
2023/01/06 11:26:42;;;;;;;81.15;11.80;;;;;;;;;;4965777;28;20047;-44
2023/01/06 11:29:23;;;;;;;66.28;11.25;;;;;;;;;;4958396;28;20047;-45
2023/01/06 11:31:50;;;;;;;44.72;8.65;;;;;;;;;;4957071;28;20050;-42
2023/01/06 11:34:19;;;;;;;47.95;8.70;;;;;;;;;;4955589;28;20066;-41
2023/01/06 11:36:46;;;;;;;67.25;10.95;;;;;;;;;;4958319;28;20379;-43
2023/01/06 11:39:25;;;;;;;59.67;11.02;;;;;;;;;;4959860;28;20184;-43
2023/01/06 11:41:52;;;;;;;65.93;11.65;;;;;;;;;;4959626;28;20114;-45
2023/01/06 11:44:28;;;;;;;72.93;10.85;;;;;;;;;;4954475;28;20042;-44
2023/01/06 11:46:56;;;;;;;56.78;10.98;;;;;;;;;;4956684;28;20042;-43
2023/01/06 11:49:25;;;;;;;77.00;10.93;;;;;;;;;;4957274;28;20211;-45
2023/01/06 11:51:58;;;;;;;68.97;11.43;;;;;;;;;;4957328;28;20046;-45
2023/01/06 11:54:35;;;;;;;102.00;13.43;;;;;;;;;;4958809;28;20135;-43
2023/01/06 11:57:13;;;;;;;65.05;13.25;;;;;;;;;;4961544;28;20046;-42
2023/01/06 12:00:00;;;;;;;81.90;13.23;;;;;;;;;;4963556;28;20481;-42
2023/01/06 12:02:39;;;;;;;75.88;12.85;;;;;;;;;;4958549;28;20051;-46
2023/01/06 12:05:15;;;;;;;85.85;12.93;;;;;;;;;;4959272;28;20058;-42
2023/01/06 12:07:45;;;;;;;50.15;10.63;;;;;;;;;;4955572;28;20045;-42
2023/01/06 12:10:17;;;;;;;62.10;11.07;;;;;;;;;;4954613;28;20058;-42
2023/01/06 12:12:43;;;;;;;60.67;11.38;;;;;;;;;;4958059;28;20098;-44
2023/01/06 12:15:11;;;;;;;38.90;9.23;;;;;;;;;;4958070;28;20118;-42
2023/01/06 12:17:59;;;;;;;52.13;8.40;;;;;;;;;;4962236;28;20118;-44
2023/01/06 12:20:36;;;;;;;84.78;10.30;;;;;;;;;;4963150;28;20049;-44
2023/01/06 12:23:10;;;;;;;51.45;7.85;;;;;;;;;;4955067;28;20157;-43
2023/01/06 12:25:38;;;;;;;32.97;7.20;;;;;;;;;;4955477;28;20131;-43
2023/01/06 12:28:17;;;;;;;70.97;9.57;;;;;;;;;;4956447;28;20043;-43
2023/01/06 12:30:49;;;;;;;54.50;8.75;;;;;;;;;;4958253;28;20035;-42
2023/01/06 12:33:22;;;;;;;82.68;10.07;;;;;;;;;;4957271;28;20027;-42
2023/01/06 12:35:50;;;;;;;58.72;9.75;;;;;;;;;;4956730;28;20131;-43
2023/01/06 12:38:25;;;;;;;72.13;10.23;;;;;;;;;;4955911;28;20043;-42
2023/01/06 12:40:54;;;;;;;66.07;9.80;;;;;;;;;;4956427;28;20054;-41
2023/01/06 12:43:24;;;;;;;91.47;11.90;;;;;;;;;;4955610;28;20040;-42
2023/01/06 12:45:54;;;;;;;58.67;9.75;;;;;;;;;;4957418;28;20039;-45
2023/01/06 12:48:29;;;;;;;73.25;10.32;;;;;;;;;;4958476;28;20549;-42
2023/01/06 12:51:03;;;;;;;51.65;9.65;;;;;;;;;;4958095;28;20058;-42
2023/01/06 12:53:29;;;;;;;;;;;;;;;;;;4957568;28;20046;-47
2023/01/06 12:56:06;;;;;;;48.58;8.50;;;;;;;;;;4955481;28;19929;-48
2023/01/06 12:58:45;;;;;;;90.38;11.40;;;;;;;;;;4956400;28;20051;-46
2023/01/06 13:01:14;;;;;;;49.25;8.70;;;;;;;;;;4954641;28;20130;-45
2023/01/06 13:03:50;;;;;;;54.50;10.18;;;;;;;;;;4956742;28;20039;-42
2023/01/06 13:06:22;;;;;;;72.57;10.85;;;;;;;;;;4958027;28;20050;-43
2023/01/06 13:09:07;;;;;;;53.70;9.93;;;;;;;;;;4960947;28;20053;-47
2023/01/06 13:11:44;;;;;;;61.92;10.32;;;;;;;;;;4957333;28;20042;-48
2023/01/06 13:14:11;;;;;;;44.25;8.90;;;;;;;;;;4956588;28;20050;-44
2023/01/06 13:16:40;;;;;;;80.30;11.98;;;;;;;;;;4958550;28;20070;-44
2023/01/06 13:19:27;;;;;;;50.40;9.95;;;;;;;;;;4962041;28;20039;-44
2023/01/06 13:21:54;;;;;;;55.13;10.70;;;;;;;;;;4953951;28;20138;-46
2023/01/06 13:24:47;;;;;;;60.83;10.73;;;;;;;;;;4953685;28;20039;-46
2023/01/06 13:27:36;;;;;;;43.03;9.25;;;;;;;;;;4959882;28;20047;-44
2023/01/06 13:30:02;;;;;;;43.03;9.48;;;;;;;;;;4961666;28;20035;-44
2023/01/06 13:32:29;;;;;;;72.03;11.65;;;;;;;;;;4955406;28;20050;-44
2023/01/06 13:35:14;;;;;;;37.08;8.60;;;;;;;;;;4954960;28;20047;-46
2023/01/06 13:37:56;;;;;;;74.22;10.95;;;;;;;;;;4956674;28;20058;-44
2023/01/06 13:40:26;;;;;;;72.03;10.70;;;;;;;;;;4958731;28;20485;-46
2023/01/06 13:43:12;;;;;;;66.53;9.95;;;;;;;;;;4954535;28;20043;-42
2023/01/06 13:45:41;;;;;;;72.68;11.55;;;;;;;;;;4957551;28;20043;-45
2023/01/06 13:48:09;;;;;;;51.00;9.50;;;;;;;;;;4957481;28;20043;-53
2023/01/06 13:50:37;;;;;;;57.97;9.80;;;;;;;;;;4956735;28;20429;-42
2023/01/06 13:53:05;;;;;;;51.33;9.52;;;;;;;;;;4955204;28;20066;-49
2023/01/06 13:55:35;;;;;;;213.93;19.88;;;;;;;;;;4956275;28;20098;-45
2023/01/06 13:58:20;;;;;;;108.15;13.35;;;;;;;;;;4958062;28;20512;-51
2023/01/06 14:01:03;;;;;;;65.97;11.15;;;;;;;;;;4965569;28;20092;-53
2023/01/06 14:03:30;;;;;;;69.90;11.05;;;;;;;;;;4960467;28;20047;-49
2023/01/06 14:05:57;;;;;;;69.63;10.98;;;;;;;;;;4962601;28;20047;-61
2023/01/06 14:08:26;;;;;;;91.10;13.40;;;;;;;;;;4961165;28;20046;-49
2023/01/06 14:11:01;;;;;;;74.68;11.93;;;;;;;;;;4971173;28;20493;-54
2023/01/06 14:13:37;;;;;;;86.95;12.68;;;;;;;;;;4957239;28;20047;-51
2023/01/06 14:16:06;;;;;;;62.50;12.50;;;;;;;;;;4958704;28;20416;-51
2023/01/06 14:18:52;;;;;;;71.07;12.82;;;;;;;;;;4963813;28;20039;-55
2023/01/06 14:21:24;;;;;;;42.80;11.23;;;;;;;;;;4960198;28;20057;-52
2023/01/06 14:24:01;;;;;;;84.10;14.07;;;;;;;;;;4960879;28;20054;-54
2023/01/06 14:26:47;;;;;;;90.47;13.90;;;;;;;;;;4963615;28;20047;-55
2023/01/06 14:29:32;;;;;;;64.72;12.30;;;;;;;;;;4960643;28;20039;-50
2023/01/06 14:31:59;;;;;;;88.38;15.27;;;;;;;;;;4966056;28;20078;-52
2023/01/06 14:34:26;;;;;;;100.15;15.70;;;;;;;;;;4969163;28;20045;-49
2023/01/06 14:36:52;;;;;;;63.97;13.10;;;;;;;;;;4963637;28;20057;-48
2023/01/06 14:39:23;;;;;;;61.20;13.25;;;;;;;;;;4968686;28;20045;-50
2023/01/06 14:41:53;;;;;;;76.63;15.40;;;;;;;;;;4968612;28;20938;-52
2023/01/06 14:44:29;;;;;;;91.95;16.30;;;;;;;;;;4969997;28;20486;-47
2023/01/06 14:47:02;;;;;;;95.65;16.50;;;;;;;;;;4958769;28;20051;-52